Flight Track Log - Related Links

Times and Time Zones

All times are in EDT time to prevent confusion due to time zone crossing. See the N1218P flight status page for this flight to view local times or setup timezone preferences in your user account.

Time Position Orientation Groundspeed Altitude Reporting Facility
EDT Latitude Longitude Course Direction KTS MPH feet Rate Location/Type
Sun 08:38:08 AM 38.6050 -92.0511 78° East 116 133 2,400  Level Kansas City Center
Sun 08:39:09 AM 38.6133 -92.0100 75° East 118 136 3,000 541 Climbing Kansas City Center
Sun 08:40:10 AM 38.6222 -91.9683 75° East 119 137 3,500 488 Climbing Kansas City Center
Sun 08:41:12 AM 38.6292 -91.9264 78° East 121 139 4,000 439 Climbing Kansas City Center
Sun 08:42:00 AM 38.6314 -91.8424 78° East  Level FlightAware Approximate
Sun 08:42:13 AM 38.6322 -91.8836 85° East 120 138 4,400  Level Kansas City Center
Sun 08:43:00 AM 38.6397 -91.7910 78° East  Level FlightAware Approximate
Sun 08:43:14 AM 38.6394 -91.8361 79° East 130 150 4,700  Level Kansas City Center
Sun 08:44:16 AM 38.6481 -91.7894 77° East 134 154 5,100 194 Climbing Kansas City Center
Sun 08:45:18 AM 38.6567 -91.7264 80° East 144 166 5,100  Level Kansas City Center
Sun 08:46:18 AM 38.6653 -91.6719 79° East 150 173 5,100  Level Kansas City Center
Sun 08:47:18 AM 38.6742 -91.6161 78° East 155 178 5,100  Level Kansas City Center
Sun 08:48:19 AM 38.6831 -91.5606 78° East 157 181 5,100  Level Kansas City Center
Sun 08:49:19 AM 38.6919 -91.5053 78° East 158 182 5,100  Level Kansas City Center
Sun 08:50:21 AM 38.7008 -91.4483 79° East 160 184 5,100  Level Kansas City Center
Sun 08:51:22 AM 38.7092 -91.3911 79° East 163 188 5,100  Level Kansas City Center
Sun 08:52:24 AM 38.7172 -91.3322 80° East 166 191 5,100  Level Kansas City Center
Sun 08:53:26 AM 38.7264 -91.2758 78° East 165 190 5,100  Level Kansas City Center
Sun 08:54:25 AM 38.7347 -91.2175 80° East 165 190 5,100  Level Kansas City Center
Sun 08:55:26 AM 38.7433 -91.1608 79° East 163 188 5,100  Level Kansas City Center
Sun 08:56:29 AM 38.7522 -91.1061 78° East 160 184 5,100  Level Kansas City Center
Sun 08:57:29 AM 38.7606 -91.0489 79° East 162 186 5,100  Level Kansas City Center
Sun 08:58:29 AM 38.7700 -90.9936 78° East 160 184 5,100  Level Kansas City Center
Sun 08:59:33 AM 38.7794 -90.9269 80° East 159 183 5,100 -48 Level Kansas City Center
Sun 09:00:33 AM 38.7875 -90.8708 80° East 160 184 5,000  Descending Kansas City Center
Sun 09:01:34 AM 38.7961 -90.8169 78° East 158 182 5,100 49 Climbing Kansas City Center
Sun 09:02:36 AM 38.8061 -90.7650 76° East 154 177 5,100  Level Kansas City Center
Sun 09:03:37 AM 38.8256 -90.7136 64° Northeast 159 183 5,100 -49 Level Kansas City Center
Sun 09:04:38 AM 38.8456 -90.6636 63° Northeast 158 182 5,000  Descending Kansas City Center
Sun 09:05:37 AM 38.8650 -90.6128 64° Northeast 158 182 5,100 50 Climbing Kansas City Center
Sun 09:06:39 AM 38.8853 -90.5619 63° Northeast 159 183 5,100  Level Kansas City Center
Sun 09:07:39 AM 38.9072 -90.5119 61° Northeast 159 183 5,100  Level Kansas City Center
Sun 09:08:40 AM 38.9275 -90.4611 63° Northeast 159 183 5,100  Level Kansas City Center
Sun 09:09:43 AM 38.9419 -90.4081 71° East 162 186 5,100  Level Kansas City Center
Sun 09:10:43 AM 38.9461 -90.3522 85° East 158 182 5,100  Level Kansas City Center
Sun 09:11:45 AM 38.9522 -90.2961 82° East 158 182 5,100  Level Kansas City Center
Sun 09:12:45 AM 38.9606 -90.2403 79° East 158 182 5,100  Level Kansas City Center
Sun 09:13:46 AM 38.9689 -90.1756 81° East 155 178 5,100  Level Kansas City Center
Sun 09:14:50 AM 38.9761 -90.1194 81° East 157 181 5,100  Level Kansas City Center
Sun 09:15:48 AM 38.9828 -90.0656 81° East 155 178 5,100  Level Kansas City Center
Sun 09:16:51 AM 38.9900 -90.0103 80° East 155 178 5,100  Level Kansas City Center
Sun 09:17:51 AM 38.9975 -89.9564 80° East 150 173 5,100  Level Kansas City Center
Sun 09:18:51 AM 39.0042 -89.8972 82° East 155 178 5,100  Level Kansas City Center
Sun 09:19:55 AM 39.0114 -89.8433 80° East 154 177 5,100  Level Kansas City Center
Sun 09:20:55 AM 39.0181 -89.7906 81° East 150 173 5,100  Level Kansas City Center
Sun 09:21:58 AM 39.0242 -89.7378 82° East 149 171 5,100  Level Kansas City Center
Sun 09:22:56 AM 39.0322 -89.6797 80° East 152 175 5,100 -49 Level Kansas City Center
Sun 09:24:00 AM 39.0394 -89.6258 80° East 152 175 5,000 -48 Descending Kansas City Center
Sun 09:25:00 AM 39.0456 -89.5714 82° East 152 175 5,000  Level Kansas City Center
Sun 09:26:01 AM 39.0517 -89.5178 82° East 152 175 5,000  Level Kansas City Center
Sun 09:27:01 AM 39.0583 -89.4625 81° East 149 171 5,000  Level Kansas City Center
Sun 09:28:05 AM 39.0644 -89.4114 81° East 146 168 5,000  Level Kansas City Center
Sun 09:29:03 AM 39.0714 -89.3586 80° East 149 171 5,000  Level Kansas City Center
Sun 09:30:07 AM 39.0772 -89.3061 82° East 150 173 5,000  Level Kansas City Center
Sun 09:31:08 AM 39.0842 -89.2506 81° East 148 170 5,000  Level Kansas City Center
Sun 09:32:10 AM 39.0908 -89.1986 81° East 147 169 5,000  Level Kansas City Center
Sun 09:33:11 AM 39.0978 -89.1467 80° East 148 170 5,000 32 Level Kansas City Center
Sun 09:35:15 AM 39.1117 -89.0428 80° East 148 170 5,100 32 Climbing Indianapolis Center
Sun 09:36:17 AM 39.1175 -88.9811 83° East 147 169 5,100 -50 Level Indianapolis Center
Sun 09:37:14 AM 39.1250 -88.9353 78° East 146 168 5,000 -50 Descending Kansas City Center
Sun 09:38:17 AM 39.1311 -88.8839 81° East 145 167 5,000  Level Kansas City Center
Sun 09:39:17 AM 39.1372 -88.8306 82° East 149 171 5,000  Level Kansas City Center
Sun 09:40:19 AM 39.1433 -88.7792 81° East 147 169 5,000  Level Kansas City Center
Sun 09:41:19 AM 39.1503 -88.7269 80° East 148 170 5,000  Level Kansas City Center
Sun 09:42:21 AM 39.1558 -88.6747 82° East 147 169 5,000  Level Kansas City Center
Sun 09:43:24 AM 39.1611 -88.6222 83° East 148 170 5,000  Level Kansas City Center
Sun 09:44:24 AM 39.1697 -88.5614 80° East 148 170 5,000  Level Kansas City Center
Sun 09:45:26 AM 39.1747 -88.5100 83° East 145 167 5,000  Level Kansas City Center
Sun 09:46:26 AM 39.1800 -88.4572 83° East 147 169 5,000  Level Kansas City Center
Sun 09:47:29 AM 39.1861 -88.4047 81° East 147 169 5,000  Level Kansas City Center
Sun 09:48:30 AM 39.1933 -88.3514 80° East 150 173 5,000  Level Kansas City Center
Sun 09:49:31 AM 39.1983 -88.2997 83° East 148 170 5,000  Level Kansas City Center
Sun 09:50:32 AM 39.2047 -88.2478 81° East 147 169 5,000  Level Kansas City Center
Sun 09:51:35 AM 39.2106 -88.1956 82° East 146 168 5,000  Level Kansas City Center
Sun 09:52:36 AM 39.2178 -88.1325 82° East 147 169 5,000  Level Kansas City Center
Sun 09:53:37 AM 39.2239 -88.0797 81° East 147 169 5,000  Level Kansas City Center
Sun 09:54:38 AM 39.2281 -88.0283 84° East 147 169 5,000  Level Kansas City Center
Sun 09:55:39 AM 39.2344 -87.9753 81° East 147 169 5,000  Level Kansas City Center
Sun 09:56:43 AM 39.2394 -87.9231 83° East 147 169 5,000  Level Kansas City Center
Sun 09:57:44 AM 39.2453 -87.8711 82° East 146 168 5,000  Level Kansas City Center
Sun 09:58:44 AM 39.2514 -87.8186 81° East 147 169 5,000  Level Kansas City Center
Sun 09:59:45 AM 39.2569 -87.7664 82° East 147 169 5,000  Level Kansas City Center
Sun 10:00:48 AM 39.2625 -87.7131 82° East 147 169 5,000  Level Kansas City Center
Sun 10:01:50 AM 39.2683 -87.6628 81° East 146 168 5,000  Level Kansas City Center
Sun 10:02:50 AM 39.2739 -87.6100 82° East 146 168 5,000 80 Level Kansas City Center
Sun 10:03:05 AM 39.2753 -87.5953 83° East 147 169 5,100 78 Climbing Indianapolis Center
Sun 10:04:07 AM 39.2817 -87.5336 82° East 145 167 5,100  Level Indianapolis Center
Sun 10:05:09 AM 39.2869 -87.4836 82° East 143 165 5,100  Level Indianapolis Center
Sun 10:06:11 AM 39.2922 -87.4344 82° East 141 162 5,100  Level Indianapolis Center
Sun 10:07:13 AM 39.2983 -87.3839 81° East 142 163 5,100  Level Indianapolis Center
Sun 10:08:15 AM 39.3031 -87.3333 83° East 142 163 5,100  Level Indianapolis Center
Sun 10:09:17 AM 39.3094 -87.2847 80° East 140 161 5,100  Level Indianapolis Center
Sun 10:10:19 AM 39.3161 -87.2253 82° East 140 161 5,100  Level Indianapolis Center
Sun 10:11:21 AM 39.3194 -87.1750 85° East 140 161 5,100  Level Indianapolis Center
Sun 10:12:22 AM 39.3247 -87.1253 82° East 140 161 5,100  Level Indianapolis Center
Sun 10:13:24 AM 39.3297 -87.0750 83° East 141 162 5,100  Level Indianapolis Center
Sun 10:14:26 AM 39.3350 -87.0253 82° East 142 163 5,100  Level Indianapolis Center
Sun 10:15:28 AM 39.3411 -86.9644 83° East 142 163 5,100 -48 Level Indianapolis Center
Sun 10:16:30 AM 39.3472 -86.9142 81° East 142 163 5,000  Descending Indianapolis Center
Sun 10:17:32 AM 39.3514 -86.8642 84° East 142 163 5,100 48 Climbing Indianapolis Center
Sun 10:18:34 AM 39.3572 -86.8128 82° East 144 166 5,100  Level Indianapolis Center
Sun 10:19:36 AM 39.3617 -86.7622 83° East 143 165 5,100  Level Indianapolis Center
Sun 10:20:38 AM 39.3664 -86.7133 83° East 140 161 5,100  Level Indianapolis Center
Sun 10:21:40 AM 39.3739 -86.6525 81° East 141 162 5,100  Level Indianapolis Center
Sun 10:22:42 AM 39.3783 -86.6011 84° East 143 165 5,100  Level Indianapolis Center
Sun 10:23:44 AM 39.3836 -86.5506 82° East 143 165 5,100  Level Indianapolis Center
Sun 10:24:46 AM 39.3944 -86.5008 74° East 145 167 5,100  Level Indianapolis Center
Sun 10:25:47 AM 39.4069 -86.4508 72° East 146 168 5,100  Level Indianapolis Center
Sun 10:26:49 AM 39.4189 -86.4017 73° East 146 168 5,100  Level Indianapolis Center
Sun 10:27:51 AM 39.4342 -86.3419 72° East 146 168 5,100  Level Indianapolis Center
Sun 10:28:53 AM 39.4467 -86.2911 72° East 149 171 5,100  Level Indianapolis Center
Sun 10:29:55 AM 39.4589 -86.2400 73° East 149 171 5,100  Level Indianapolis Center
Sun 10:30:56 AM 39.4614 -86.1883 86° East 147 169 5,100  Level Indianapolis Center
Sun 10:31:58 AM 39.4647 -86.1367 85° East 146 168 5,100  Level Indianapolis Center
Sun 10:33:00 AM 39.4692 -86.0753 85° East 145 167 5,100 -48 Level Indianapolis Center
Sun 10:34:02 AM 39.4714 -86.0233 87° East 145 167 5,000  Descending Indianapolis Center
Sun 10:35:04 AM 39.4758 -85.9728 83° East 144 166 5,100 49 Climbing Indianapolis Center
Sun 10:36:05 AM 39.4797 -85.9214 84° East 144 166 5,100  Level Indianapolis Center
Sun 10:37:07 AM 39.4833 -85.8681 85° East 146 168 5,100  Level Indianapolis Center
Sun 10:38:09 AM 39.4878 -85.8158 84° East 147 169 5,100  Level Indianapolis Center
Sun 10:39:11 AM 39.4919 -85.7536 85° East 146 168 5,100  Level Indianapolis Center
Sun 10:40:12 AM 39.4953 -85.7011 85° East 146 168 5,100  Level Indianapolis Center
Sun 10:41:14 AM 39.4983 -85.6500 86° East 146 168 5,100  Level Indianapolis Center
Sun 10:42:16 AM 39.5022 -85.5992 84° East 144 166 5,100  Level Indianapolis Center
Sun 10:43:18 AM 39.5056 -85.5486 85° East 143 165 5,100 -49 Level Indianapolis Center
Sun 10:44:19 AM 39.5092 -85.4964 85° East 144 166 5,000 -49 Descending Indianapolis Center
Sun 10:45:21 AM 39.5125 -85.4458 85° East 144 166 5,000  Level Indianapolis Center
Sun 10:46:23 AM 39.5169 -85.3836 85° East 144 166 5,000  Level Indianapolis Center
Sun 10:46:51 AM 39.5194 -85.3583 83° East 143 165 5,000  Level Indianapolis Center
Sun 10:47:24 AM 39.5203 -85.3322 88° East 144 166 5,000  Level Indianapolis Center
Sun 10:48:11 AM 39.5233 -85.2911 84° East 146 168 5,000  Level Indianapolis Center
Sun 10:48:26 AM 39.5231 -85.2803 92° East 144 166 5,000  Level Indianapolis Center
Sun 10:49:05 AM 39.5278 -85.2431 81° East 144 166 5,000  Level Indianapolis Center
Sun 10:49:28 AM 39.5269 -85.2278 94° East 146 168 5,000  Level Indianapolis Center
Sun 10:50:00 AM 39.5300 -85.1947 83° East 147 169 5,000  Level Indianapolis Center
Sun 10:50:29 AM 39.5311 -85.1756 86° East 146 168 5,000  Level Indianapolis Center
Sun 10:51:07 AM 39.5328 -85.1381 87° East 146 168 5,000  Level Indianapolis Center
Sun 10:51:31 AM 39.5328 -85.1236 90° East 146 168 5,000 98 Level Indianapolis Center
Sun 10:52:08 AM 39.5375 -85.0847 81° East 146 168 5,100  Climbing Indianapolis Center
Sun 10:52:33 AM 39.5364 -85.0606 93° East 146 168 5,000 -109 Descending Indianapolis Center
Sun 10:53:03 AM 39.5394 -85.0361 81° East 147 169 5,000  Level Indianapolis Center
Sun 10:53:34 AM 39.5397 -85.0081 89° East 147 169 5,000  Level Indianapolis Center
Sun 10:54:04 AM 39.5422 -84.9797 83° East 148 170 5,000  Level Indianapolis Center
Sun 10:54:36 AM 39.5422 -84.9556 90° East 147 169 5,000  Level Indianapolis Center
Sun 10:54:59 AM 39.5442 -84.9339 83° East 147 169 5,000  Level Indianapolis Center
Sun 10:55:37 AM 39.5464 -84.9022 85° East 148 170 5,000  Level Indianapolis Center
Sun 10:56:11 AM 39.5494 -84.8697 83° East 148 170 5,000 97 Level Indianapolis Center
Sun 10:56:39 AM 39.5522 -84.8489 80° East 148 170 5,100  Climbing Indianapolis Center
Sun 10:57:06 AM 39.5536 -84.8214 86° East 148 170 5,000 -97 Descending Indianapolis Center
Sun 10:57:41 AM 39.5553 -84.7931 86° East 147 169 5,000  Level Indianapolis Center
Sun 10:58:07 AM 39.5581 -84.7678 82° East 147 169 5,000  Level Indianapolis Center
Sun 10:58:42 AM 39.5639 -84.7394 75° East 149 171 5,000  Level Indianapolis Center
Sun 10:59:02 AM 39.5683 -84.7206 73° East 152 175 5,000  Level Indianapolis Center
Sun 10:59:44 AM 39.5783 -84.6875 69° East 151 174 5,000  Level Indianapolis Center
Sun 11:00:21 AM 39.5867 -84.6528 73° East 153 176 5,000  Level Indianapolis Center
Sun 11:00:45 AM 39.5917 -84.6358 69° East 151 174 5,000 -98 Level Indianapolis Center
Sun 11:01:22 AM 39.6014 -84.6006 70° East 152 175 4,900 -194 Descending Indianapolis Center
Sun 11:01:47 AM 39.6044 -84.5828 77° East 151 174 4,800 -429 Descending Indianapolis Center
Sun 11:02:04 AM 39.6111 -84.5586 70° East 156 180 4,600 -492 Descending Indianapolis Center
Sun 11:02:48 AM 39.6192 -84.5272 72° East 156 180 4,300 -537 Descending Indianapolis Center
Sun 11:03:11 AM 39.6264 -84.5008 70° East 164 189 4,000 -581 Descending Indianapolis Center
Sun 11:03:50 AM 39.6369 -84.4631 70° East 160 184 3,700 -492 Descending Indianapolis Center
Sun 11:04:12 AM 39.6414 -84.4461 71° East 159 183 3,500 -581 Descending Indianapolis Center
Sun 11:04:52 AM 39.6525 -84.4100 68° East 159 183 3,100 -492 Descending Indianapolis Center
Sun 11:05:13 AM 39.6586 -84.3886 70° East 158 182 3,000  Descending Indianapolis Center
Sun 11:05:53 AM 39.6678 -84.3547 71° East 158 182 3,100 150 Climbing Indianapolis Center
Sun 11:07:00 AM 39.6347 -84.3136 136° Southeast  Level FlightAware Approximate
Sun 11:14:00 AM 39.5890 -84.2249 90° East  Level Estimated
Sun 11:15:00 AM 39.5890 -84.2249 90° East  Level Estimated

Login

Don't have an account? Register now (free) for customized features, flight alerts, and more!